Time;durP1;ratioP1;P1;durP2;ratioP2;P2;SDS_P1;SDS_P2;PMS_P1;PMS_P2;Temp;Humidity;BMP_temperature;BMP_pressure;BME280_temperature;BME280_humidity;BME280_pressure;Samples;Min_cycle;Max_cycle;Signal;HPM_P1;HPM_P2
2022/01/26 00:05:47;;;;;;;41.90;15.63;;;;;;;-3.73;70.79;100176.89;1745539;79;21130;-84
2022/01/26 00:06:36;;;;;;;40.03;14.25;;;;;;;-3.72;71.21;100178.66;1711857;79;21050;-84
2022/01/26 00:09:05;;;;;;;46.77;15.98;;;;;;;-3.73;70.72;100165.86;1728426;77;21100;-82
2022/01/26 00:11:32;;;;;;;41.53;15.58;;;;;;;-3.70;70.18;100168.16;1740745;79;21087;-79
2022/01/26 00:14:02;;;;;;;43.30;15.53;;;;;;;-3.77;71.05;100156.34;1771619;76;21192;-83
2022/01/26 00:16:40;;;;;;;45.43;17.48;;;;;;;-3.75;70.73;100153.08;1762048;78;21023;-84
2022/01/26 00:19:05;;;;;;;45.35;15.58;;;;;;;-3.73;70.86;100137.91;1758085;78;21047;-83
2022/01/26 00:21:36;;;;;;;43.48;15.90;;;;;;;-3.71;70.65;100138.86;1759321;80;21023;-83
2022/01/26 00:26:36;;;;;;;42.00;15.88;;;;;;;-3.61;70.68;100137.23;1759105;77;21007;-84
2022/01/26 00:29:18;;;;;;;36.08;14.50;;;;;;;-3.56;70.30;100134.89;1757792;77;21146;31
2022/01/26 00:40:36;;;;;;;39.83;13.72;;;;;;;-3.45;69.27;100142.65;1728429;79;21067;-84
2022/01/26 00:43:08;;;;;;;38.60;13.98;;;;;;;-3.42;69.39;100138.59;1723034;83;21023;-84
2022/01/26 00:45:34;;;;;;;30.92;11.35;;;;;;;-3.43;69.25;100144.45;1722356;83;21083;-84
2022/01/26 00:47:57;;;;;;;27.07;9.75;;;;;;;-3.46;68.50;100130.72;1722969;81;21048;-84
2022/01/26 00:50:23;;;;;;;21.35;8.78;;;;;;;-3.44;68.61;100134.23;1710562;84;21062;-83
2022/01/26 00:52:54;;;;;;;23.47;10.20;;;;;;;-3.44;67.98;100136.38;1710648;82;21022;-84
2022/01/26 00:55:20;;;;;;;26.17;9.40;;;;;;;-3.40;68.41;100144.61;1710233;84;21090;-84
2022/01/26 00:57:47;;;;;;;19.57;8.65;;;;;;;-3.37;68.29;100145.56;1710624;84;21003;-84
2022/01/26 01:00:19;;;;;;;32.33;10.50;;;;;;;-3.36;68.20;100146.02;1710751;84;21014;-84
2022/01/26 01:02:46;;;;;;;28.60;10.25;;;;;;;-3.37;67.44;100148.97;1710509;83;21018;-83
2022/01/26 01:05:19;;;;;;;25.32;10.05;;;;;;;-3.38;67.44;100142.16;1710388;84;21043;-82
2022/01/26 01:07:43;;;;;;;26.00;10.00;;;;;;;-3.38;67.44;100143.42;1710059;80;21030;-83
2022/01/26 01:10:10;;;;;;;25.25;9.08;;;;;;;-3.37;68.06;100146.42;1723416;82;21015;-81
2022/01/26 01:12:43;;;;;;;21.62;8.80;;;;;;;-3.34;67.20;100143.14;1723293;83;21051;-81
2022/01/26 01:15:07;;;;;;;28.07;9.48;;;;;;;-3.29;67.00;100145.11;1722373;83;21018;-82
2022/01/26 01:17:40;;;;;;;35.90;12.88;;;;;;;-3.28;66.88;100144.73;1723950;83;21091;-83
2022/01/26 01:20:19;;;;;;;45.55;18.90;;;;;;;-3.26;67.33;100135.09;1722610;83;21187;-83
2022/01/26 01:22:57;;;;;;;36.80;16.23;;;;;;;-3.21;67.88;100135.30;1721526;82;21079;-82
2022/01/26 01:28:21;;;;;;;45.05;18.45;;;;;;;-3.26;68.36;100124.06;1724016;80;21102;-84
2022/01/26 01:30:44;;;;;;;45.83;15.58;;;;;;;-3.22;68.81;100122.13;1713822;83;21068;-82
2022/01/26 01:33:10;;;;;;;40.88;14.35;;;;;;;-3.20;68.87;100115.44;1718178;83;21044;-82
2022/01/26 01:35:41;;;;;;;40.15;14.83;;;;;;;-3.17;68.67;100111.75;1718434;84;21040;-82
2022/01/26 01:38:10;;;;;;;38.17;14.38;;;;;;;-3.17;68.58;100109.61;1719066;84;21078;-82
2022/01/26 01:40:40;;;;;;;38.02;13.35;;;;;;;-3.21;68.33;100104.78;1719159;83;21048;-84
2022/01/26 01:43:07;;;;;;;43.65;16.55;;;;;;;-3.23;68.55;100107.24;1724749;82;21105;-83
2022/01/26 01:45:43;;;;;;;60.58;19.65;;;;;;;-3.23;69.11;100094.94;1718973;84;21111;-84
2022/01/26 01:48:12;;;;;;;83.10;29.00;;;;;;;-3.15;68.82;100104.20;1719281;82;20965;-82
2022/01/26 01:50:41;;;;;;;53.95;20.30;;;;;;;-3.17;68.84;100108.34;1719249;83;21055;-83
2022/01/26 01:53:13;;;;;;;41.20;15.78;;;;;;;-3.17;68.52;100107.07;1718861;82;21028;-84
2022/01/26 01:55:42;;;;;;;33.88;14.47;;;;;;;-3.26;68.86;100093.13;1718924;82;21083;-84
2022/01/26 01:58:10;;;;;;;37.73;14.47;;;;;;;-3.27;68.59;100099.41;1718956;82;20984;-84
2022/01/26 02:00:37;;;;;;;45.48;17.37;;;;;;;-3.29;68.71;100096.79;1718689;82;21008;-85
2022/01/26 02:03:04;;;;;;;38.35;15.40;;;;;;;-3.32;68.70;100086.87;1719052;83;21291;-84
2022/01/26 02:05:30;;;;;;;37.08;15.30;;;;;;;-3.30;68.89;100090.36;1727435;79;21081;-81
2022/01/26 02:07:59;;;;;;;47.50;17.87;;;;;;;-3.28;68.92;100088.37;1742262;80;21097;-83
2022/01/26 02:10:28;;;;;;;44.90;16.30;;;;;;;-3.27;68.63;100082.88;1766412;77;21075;-82
2022/01/26 02:12:57;;;;;;;41.98;15.50;;;;;;;-3.26;68.77;100079.55;1750900;82;21013;-83
2022/01/26 02:15:35;;;;;;;39.53;14.95;;;;;;;-3.26;68.68;100081.69;1750974;80;21046;-82
2022/01/26 02:53:20;;;;;;;42.95;18.07;;;;;;;-3.12;68.99;100082.70;1784707;80;20994;-84
2022/01/26 02:55:35;;;;;;;44.85;18.30;;;;;;;-3.16;68.63;100075.73;1787652;78;20980;-83
2022/01/26 03:03:41;;;;;;;42.93;17.00;;;;;;;-3.15;68.73;100087.25;1797521;78;21143;-84
2022/01/26 03:06:09;;;;;;;44.65;17.65;;;;;;;-3.28;69.12;100087.52;1814455;78;21027;-84
2022/01/26 03:08:36;;;;;;;47.30;17.87;;;;;;;-3.36;69.27;100086.26;1815550;79;21023;-84
2022/01/26 03:11:07;;;;;;;42.10;16.37;;;;;;;-3.32;69.72;100086.87;1815945;79;21039;-83
2022/01/26 03:13:32;;;;;;;51.05;17.77;;;;;;;-3.32;69.59;100091.95;1815259;79;21031;-84
2022/01/26 03:17:01;;;;;;;43.85;16.30;;;;;;;-3.32;70.12;100088.14;1816870;79;21034;-83
2022/01/26 03:18:58;;;;;;;44.65;18.37;;;;;;;-3.31;69.78;100091.17;1798004;79;21074;-83
2022/01/26 03:21:27;;;;;;;39.85;16.05;;;;;;;-3.30;69.88;100089.98;1815788;78;20976;-84
2022/01/26 03:29:42;;;;;;;41.85;16.50;;;;;;;-3.27;70.05;100098.14;1817273;79;20996;-81
2022/01/26 03:32:44;;;;;;;46.80;17.25;;;;;;;-3.27;70.33;100099.00;1814215;78;21016;-84
2022/01/26 03:34:36;;;;;;;44.38;17.50;;;;;;;-3.26;70.00;100101.17;1812418;78;20972;-83
2022/01/26 03:37:07;;;;;;;54.20;20.08;;;;;;;-3.31;70.67;100097.13;1816830;79;21511;-80
2022/01/26 03:39:39;;;;;;;53.05;20.32;;;;;;;-3.33;69.98;100104.22;1816203;78;20983;-84
2022/01/26 03:42:06;;;;;;;45.70;17.95;;;;;;;-3.38;70.83;100100.20;1815646;78;20989;-83
2022/01/26 03:44:30;;;;;;;76.92;27.58;;;;;;;-3.35;70.78;100100.32;1816775;79;21031;-84
2022/01/26 03:46:57;;;;;;;89.83;30.40;;;;;;;-3.36;70.96;100105.33;1817177;79;21031;-83
2022/01/26 03:49:24;;;;;;;64.75;25.27;;;;;;;-3.36;71.02;100101.52;1817116;79;21006;-84
2022/01/26 03:51:51;;;;;;;53.05;20.72;;;;;;;-3.33;70.62;100098.72;1817049;79;21034;-84
2022/01/26 03:54:19;;;;;;;55.20;21.25;;;;;;;-3.35;70.47;100096.51;1817154;79;21015;-83
2022/01/26 03:56:46;;;;;;;48.80;18.32;;;;;;;-3.41;71.09;100093.27;1817091;78;21060;-83
2022/01/26 03:59:13;;;;;;;52.75;18.85;;;;;;;-3.43;70.37;100091.06;1817094;79;21276;-84
2022/01/26 04:01:39;;;;;;;44.05;18.80;;;;;;;-3.45;71.01;100095.61;1817213;79;20984;-84
2022/01/26 04:04:06;;;;;;;47.23;19.35;;;;;;;-3.48;70.87;100096.34;1814619;79;21015;-84
2022/01/26 04:06:34;;;;;;;50.85;18.85;;;;;;;-3.53;71.22;100088.89;1813902;79;21027;-83
2022/01/26 04:09:03;;;;;;;49.77;19.95;;;;;;;-3.58;71.11;100098.36;1813815;79;21029;-83
2022/01/26 04:11:46;;;;;;;46.90;18.43;;;;;;;-3.60;71.52;100099.18;1813921;78;21042;-83
2022/01/26 04:14:14;;;;;;;38.83;16.75;;;;;;;-3.62;70.96;100090.61;1813397;78;21011;-84
2022/01/26 04:16:42;;;;;;;50.58;18.73;;;;;;;-3.63;71.51;100091.39;1813909;77;21003;-84
2022/01/26 04:19:10;;;;;;;48.00;19.25;;;;;;;-3.59;71.75;100086.06;1813926;79;20964;-83
2022/01/26 04:29:31;;;;;;;57.90;21.25;;;;;;;-3.52;71.40;100089.75;1813603;79;20960;-83
2022/01/26 04:31:53;;;;;;;46.05;19.23;;;;;;;-3.68;72.09;100095.41;1810773;77;21036;-82
2022/01/26 04:34:20;;;;;;;52.38;21.30;;;;;;;-3.73;71.94;100095.57;1797967;78;20990;-84
2022/01/26 04:37:50;;;;;;;52.73;19.92;;;;;;;-3.72;72.30;100090.98;1767145;79;20963;-83
2022/01/26 04:39:21;;;;;;;52.35;21.15;;;;;;;-3.68;72.13;100095.78;1758714;80;21037;-83
2022/01/26 04:41:58;;;;;;;49.27;19.07;;;;;;;-3.65;72.73;100088.31;1796427;78;21007;-83
2022/01/26 04:44:29;;;;;;;52.03;20.57;;;;;;;-3.59;72.60;100086.06;1795754;78;20999;-84
2022/01/26 04:46:53;;;;;;;51.13;20.27;;;;;;;-3.54;72.91;100093.52;1796808;78;21018;-83
2022/01/26 04:49:20;;;;;;;56.70;20.48;;;;;;;-3.47;72.41;100092.98;1798640;78;20982;-83
2022/01/26 04:51:47;;;;;;;45.23;18.00;;;;;;;-3.49;72.51;100092.45;1814521;79;21036;-85
2022/01/26 04:54:15;;;;;;;52.55;20.25;;;;;;;-3.44;72.60;100092.28;1823362;78;21064;-82
2022/01/26 04:56:41;;;;;;;54.23;20.08;;;;;;;-3.42;72.32;100094.09;1823383;78;21012;-84
2022/01/26 04:59:08;;;;;;;45.70;18.80;;;;;;;-3.38;72.81;100092.56;1823317;78;21022;-83
2022/01/26 05:01:34;;;;;;;59.15;22.05;;;;;;;-3.36;72.55;100093.89;1823277;78;20989;-84
2022/01/26 05:04:01;;;;;;;46.53;20.23;;;;;;;-3.34;72.69;100091.91;1822952;78;21088;-84
2022/01/26 05:06:27;;;;;;;62.27;20.50;;;;;;;-3.31;72.85;100103.88;1814144;79;21048;-84
2022/01/26 05:08:53;;;;;;;55.80;19.85;;;;;;;-3.33;72.66;100097.45;1823239;79;21096;-83
2022/01/26 05:11:34;;;;;;;51.55;20.95;;;;;;;-3.34;72.53;100091.91;1823388;78;21072;-84
2022/01/26 05:13:58;;;;;;;49.58;20.95;;;;;;;-3.31;71.89;100095.84;1823204;78;20946;-82
2022/01/26 05:16:25;;;;;;;54.93;20.60;;;;;;;-3.41;72.43;100096.22;1823501;79;21009;-83
2022/01/26 05:18:53;;;;;;;58.33;19.85;;;;;;;-3.40;72.44;100095.44;1823467;78;21025;-84
2022/01/26 05:21:21;;;;;;;50.17;20.68;;;;;;;-3.48;72.60;100098.89;1823361;79;20954;-83
2022/01/26 05:23:48;;;;;;;44.67;19.80;;;;;;;-3.52;73.10;100094.84;1823343;78;21000;-83
2022/01/26 05:26:15;;;;;;;54.15;20.62;;;;;;;-3.49;72.42;100087.38;1823536;78;21009;-84
2022/01/26 05:28:41;;;;;;;54.93;20.60;;;;;;;-3.50;72.66;100097.05;1823515;78;21020;-83
2022/01/26 05:31:08;;;;;;;51.15;19.42;;;;;;;-3.55;72.48;100085.41;1823573;78;21001;-83
2022/01/26 05:33:34;;;;;;;76.02;26.00;;;;;;;-3.57;73.65;100088.69;1823415;78;21004;-84
2022/01/26 05:36:01;;;;;;;54.53;22.10;;;;;;;-3.63;73.67;100085.45;1823322;78;21041;-83
2022/01/26 05:38:27;;;;;;;73.92;23.85;;;;;;;-3.60;73.67;100082.66;1823291;78;20998;-84
2022/01/26 05:40:56;;;;;;;85.97;28.30;;;;;;;-3.63;74.55;100091.39;1823239;79;21016;-84
2022/01/26 05:43:22;;;;;;;77.87;24.35;;;;;;;-3.62;74.95;100082.98;1823351;78;21082;-83
2022/01/26 05:45:53;;;;;;;72.58;25.88;;;;;;;-3.63;74.37;100090.12;1823542;79;20966;-84
2022/01/26 05:48:17;;;;;;;85.97;26.55;;;;;;;-3.66;74.34;100080.20;1822961;78;21013;-83
2022/01/26 05:50:51;;;;;;;63.20;20.92;;;;;;;-3.64;74.01;100087.13;1823098;78;20997;-84
2022/01/26 05:53:12;;;;;;;64.72;23.00;;;;;;;-3.68;74.46;100086.51;1822924;78;21016;-84
2022/01/26 05:55:38;;;;;;;124.05;33.33;;;;;;;-3.59;74.28;100080.98;1823229;78;21017;-82
2022/01/26 05:58:04;;;;;;;106.05;30.50;;;;;;;-3.58;74.49;100087.83;1823335;78;21048;-84
2022/01/26 06:00:31;;;;;;;101.00;30.90;;;;;;;-3.56;74.86;100082.78;1823339;78;21083;-83
2022/01/26 06:02:57;;;;;;;138.62;38.17;;;;;;;-3.55;74.50;100081.59;1823166;78;21067;-83
2022/01/26 06:05:23;;;;;;;167.50;39.25;;;;;;;-3.52;74.73;100074.50;1823289;78;20994;-84
2022/01/26 06:07:50;;;;;;;92.65;27.55;;;;;;;-3.56;74.47;100088.77;1793856;77;21028;-85
2022/01/26 06:10:16;;;;;;;101.60;32.25;;;;;;;-3.56;74.01;100087.49;1759164;81;21043;-84
2022/01/26 06:12:43;;;;;;;99.05;29.85;;;;;;;-3.60;73.80;100082.66;1738331;81;21058;-83
2022/01/26 06:15:10;;;;;;;81.53;25.97;;;;;;;-3.64;74.36;100084.59;1759098;80;21043;-84
2022/01/26 06:17:36;;;;;;;62.05;20.88;;;;;;;-3.60;74.23;100090.69;1759308;80;21084;-82
2022/01/26 06:20:03;;;;;;;63.95;21.95;;;;;;;-3.57;74.24;100084.47;1759321;78;21176;-84
2022/01/26 06:22:30;;;;;;;66.12;21.82;;;;;;;-3.50;74.22;100086.51;1785136;78;21074;-80
2022/01/26 06:24:58;;;;;;;66.45;24.63;;;;;;;-3.43;74.52;100083.44;1761825;78;21339;-83
2022/01/26 06:27:24;;;;;;;137.00;44.75;;;;;;;-3.36;74.83;100092.23;1780958;79;20988;-83
2022/01/26 06:29:51;;;;;;;91.85;33.00;;;;;;;-3.31;74.57;100096.26;1770382;78;21095;-82
2022/01/26 06:32:17;;;;;;;79.55;28.70;;;;;;;-3.28;74.66;100093.88;1763529;80;21066;-83
2022/01/26 06:34:44;;;;;;;62.70;24.57;;;;;;;-3.24;74.57;100088.13;1748267;80;21135;-82
2022/01/26 06:37:11;;;;;;;74.15;26.52;;;;;;;-3.21;74.36;100093.33;1717341;75;21080;-82
2022/01/26 06:39:37;;;;;;;76.80;27.45;;;;;;;-3.20;73.84;100095.09;1745756;77;21099;-84
2022/01/26 06:42:11;;;;;;;67.58;28.60;;;;;;;-3.23;74.10;100094.53;1735362;82;21016;-83
2022/01/26 06:49:36;;;;;;;70.95;26.05;;;;;;;-3.15;73.62;100088.52;1698266;81;21091;-82
2022/01/26 06:52:04;;;;;;;54.83;21.35;;;;;;;-3.21;73.32;100084.43;1723920;80;21082;-84
2022/01/26 06:54:30;;;;;;;56.75;22.27;;;;;;;-3.29;74.00;100087.02;1766580;80;20989;-83
2022/01/26 06:57:10;;;;;;;57.58;23.32;;;;;;;-3.28;73.87;100087.52;1757278;78;22629;31
2022/01/26 06:59:37;;;;;;;55.88;20.75;;;;;;;-3.30;73.33;100087.81;1710648;78;21162;-80
2022/01/26 07:02:04;;;;;;;67.10;23.18;;;;;;;-3.34;73.93;100082.11;1782102;78;21044;-84
2022/01/26 07:04:30;;;;;;;62.67;22.37;;;;;;;-3.33;74.14;100081.33;1810606;77;21006;-82
2022/01/26 07:06:57;;;;;;;56.88;22.32;;;;;;;-3.28;74.36;100079.88;1772305;79;21393;-84
2022/01/26 07:12:13;;;;;;;45.65;20.00;;;;;;;-3.29;73.50;100078.13;1749885;78;21230;-82
2022/01/26 07:22:48;;;;;;;81.10;25.37;;;;;;;-3.16;74.32;100090.61;1763620;79;21037;-85
2022/01/26 07:25:15;;;;;;;60.40;24.05;;;;;;;-3.23;74.43;100102.56;1764756;79;21054;-86
2022/01/26 07:30:46;;;;;;;;;;;;;;;-3.15;74.63;100082.16;1732462;82;21135;-82
2022/01/26 07:33:13;;;;;;;58.08;21.12;;;;;;;-3.05;74.17;100100.85;1727310;82;20086;-82
2022/01/26 07:35:39;;;;;;;72.47;26.23;;;;;;;-3.06;74.23;100097.86;1740585;77;21144;-81
2022/01/26 07:38:20;;;;;;;66.92;26.07;;;;;;;-3.01;74.31;100099.33;1755219;77;21185;31
2022/01/26 07:40:47;;;;;;;60.90;22.73;;;;;;;-2.95;74.27;100094.92;1804944;79;21079;-82
2022/01/26 07:43:13;;;;;;;57.20;22.67;;;;;;;-2.85;74.21;100099.61;1799613;78;20984;-82
2022/01/26 07:45:41;;;;;;;60.55;24.02;;;;;;;-2.81;73.85;100081.13;1770982;77;21070;-82
2022/01/26 07:48:09;;;;;;;56.83;23.63;;;;;;;-2.68;73.89;100092.33;1772264;77;21071;31
2022/01/26 08:02:44;;;;;;;63.60;23.38;;;;;;;-2.46;72.55;100089.04;1795618;76;21074;-82
2022/01/26 08:05:12;;;;;;;56.10;21.40;;;;;;;-2.49;71.93;100086.34;1793533;77;21079;-80
2022/01/26 08:07:39;;;;;;;56.53;22.90;;;;;;;-2.42;72.14;100086.23;1791920;80;21046;-82
2022/01/26 08:10:07;;;;;;;56.55;22.73;;;;;;;-2.38;71.78;100088.09;1808282;76;21014;-83
2022/01/26 08:12:34;;;;;;;134.27;47.88;;;;;;;-2.30;71.84;100086.74;1791009;78;20979;-84
2022/01/26 08:15:00;;;;;;;71.97;27.52;;;;;;;-2.25;71.82;100089.09;1792199;77;21003;-86
2022/01/26 08:17:44;;;;;;;48.30;18.00;;;;;;;-2.22;71.56;100086.66;1786765;75;21103;31
2022/01/26 08:20:22;;;;;;;43.03;17.87;;;;;;;-2.24;70.69;100095.91;1754870;77;22678;31
2022/01/26 08:22:51;;;;;;;43.20;16.45;;;;;;;-2.23;70.44;100091.68;1762659;77;21149;-76
2022/01/26 08:40:37;;;;;;;67.05;24.45;;;;;;;-2.26;68.83;100108.98;1771296;76;21094;31
2022/01/26 08:46:08;;;;;;;52.98;19.70;;;;;;;-2.13;69.45;100120.59;1779069;76;21161;31
2022/01/26 08:51:57;;;;;;;56.73;21.68;;;;;;;-2.04;69.80;100112.45;1742011;77;21082;31
2022/01/26 08:54:24;;;;;;;59.27;21.15;;;;;;;-2.08;69.38;100122.05;1768121;77;21172;-77
2022/01/26 08:56:56;;;;;;;73.50;28.55;;;;;;;-2.05;69.17;100120.50;1798848;78;21552;31
2022/01/26 09:09:03;;;;;;;62.88;24.95;;;;;;;-1.80;69.79;100119.81;1778975;77;21115;31
2022/01/26 09:11:35;;;;;;;66.37;25.70;;;;;;;-1.72;69.27;100119.27;1761391;77;21091;31
2022/01/26 09:17:27;;;;;;;69.53;24.23;;;;;;;-1.73;69.20;100117.52;1764185;78;22364;31
2022/01/26 09:26:19;;;;;;;63.45;25.15;;;;;;;-1.73;68.46;100114.97;1776868;77;21106;31
2022/01/26 09:37:46;;;;;;;68.75;27.62;;;;;;;-1.76;67.41;100105.52;1779290;77;21009;-76
2022/01/26 09:40:13;;;;;;;60.73;25.32;;;;;;;-1.74;68.04;100106.45;1762397;79;22967;-80
2022/01/26 09:42:41;;;;;;;62.45;23.20;;;;;;;-1.72;67.80;100109.08;1765476;78;21016;-86
2022/01/26 09:45:10;;;;;;;59.05;23.95;;;;;;;-1.66;68.12;100102.95;1786563;76;21063;-83
2022/01/26 09:47:52;;;;;;;61.53;23.90;;;;;;;-1.65;68.65;100109.77;1823272;75;21114;31
2022/01/26 10:05:48;;;;;;;32.05;12.78;;;;;;;-1.34;67.09;100088.03;1790439;78;21079;-88
2022/01/26 10:17:35;;;;;;;34.25;10.80;;;;;;;-1.18;65.39;100081.42;1793304;78;21168;-90
2022/01/26 10:20:05;;;;;;;25.72;11.20;;;;;;;-1.10;65.97;100079.16;1720925;79;21783;-84
2022/01/26 10:22:34;;;;;;;36.55;12.30;;;;;;;-1.14;65.22;100074.34;1758614;80;21015;-85
2022/01/26 10:25:10;;;;;;;38.05;12.70;;;;;;;-1.11;66.37;100082.13;1736985;80;21067;-90
2022/01/26 10:28:00;;;;;;;28.35;11.83;;;;;;;-1.11;65.98;100070.65;1790799;79;21036;-87
2022/01/26 10:30:27;;;;;;;32.17;14.03;;;;;;;-1.01;65.73;100071.45;1792527;78;21061;-87
2022/01/26 10:32:54;;;;;;;40.78;13.40;;;;;;;-0.93;65.88;100071.73;1762966;76;21092;-91
2022/01/26 10:35:21;;;;;;;36.85;12.90;;;;;;;-0.85;65.86;100070.33;1748709;81;21028;-90
2022/01/26 10:37:54;;;;;;;37.85;11.50;;;;;;;-0.79;65.19;100072.23;1734342;82;21037;-91
2022/01/26 10:40:25;;;;;;;33.13;12.63;;;;;;;-0.74;65.49;100061.77;1767832;78;21092;-90
2022/01/26 10:43:13;;;;;;;32.42;12.85;;;;;;;-0.78;64.49;100066.30;1821424;76;21083;-88
2022/01/26 10:45:53;;;;;;;41.92;13.58;;;;;;;-0.76;65.29;100057.01;1789052;78;21074;-90
2022/01/26 10:48:24;;;;;;;35.25;12.03;;;;;;;-0.85;65.08;100054.15;1796571;77;21149;-87
2022/01/26 10:53:40;;;;;;;30.60;11.83;;;;;;;-0.62;65.52;100049.45;1773710;78;21058;-89
2022/01/26 10:56:07;;;;;;;42.90;12.28;;;;;;;-0.58;64.75;100050.82;1765262;78;21169;-91
2022/01/26 10:58:34;;;;;;;39.60;14.07;;;;;;;-0.49;65.15;100039.23;1788096;79;21141;-90
2022/01/26 11:01:01;;;;;;;33.42;11.53;;;;;;;-0.51;63.03;100051.51;1826873;74;21648;-90
2022/01/26 11:03:28;;;;;;;36.93;13.50;;;;;;;-0.46;63.91;100043.19;1855446;75;21008;-90
2022/01/26 11:05:56;;;;;;;40.60;13.38;;;;;;;-0.42;63.08;100031.36;1764333;76;21100;-90
2022/01/26 11:08:25;;;;;;;32.35;13.22;;;;;;;-0.41;62.91;100030.56;1752332;81;21103;-79
2022/01/26 11:10:52;;;;;;;30.43;12.40;;;;;;;-0.41;63.48;100030.56;1754039;80;21044;-84
2022/01/26 11:13:28;;;;;;;37.53;12.88;;;;;;;-0.37;63.49;100022.60;1721922;81;21067;-89
2022/01/26 11:16:11;;;;;;;33.45;13.03;;;;;;;-0.53;63.57;100027.59;1740448;80;20944;-86
2022/01/26 11:18:50;;;;;;;29.07;13.38;;;;;;;-0.58;62.89;100026.14;1727527;82;21269;-89
2022/01/26 11:21:35;;;;;;;31.57;13.58;;;;;;;-0.58;63.25;100018.89;1744012;77;21010;-88
2022/01/26 11:24:23;;;;;;;33.13;14.25;;;;;;;-0.72;63.55;100021.83;1713106;78;21077;-91
2022/01/26 11:27:35;;;;;;;33.67;13.10;;;;;;;-0.78;63.68;100016.92;1772845;80;20985;-88
2022/01/26 11:29:58;;;;;;;41.80;14.95;;;;;;;-0.76;64.04;100022.95;1775858;79;21074;-90
2022/01/26 11:32:35;;;;;;;38.42;14.63;;;;;;;-0.59;64.13;100017.17;1861353;76;21115;-90
2022/01/26 11:38:27;;;;;;;35.95;13.03;;;;;;;-0.58;63.45;100011.23;1685005;80;21102;-85
2022/01/26 11:46:39;;;;;;;38.73;15.55;;;;;;;-0.52;64.46;100008.47;1775320;76;22553;-88
2022/01/26 11:49:11;;;;;;;37.15;14.38;;;;;;;-0.58;63.79;100004.84;1754446;80;21045;-87
2022/01/26 11:51:51;;;;;;;42.98;15.58;;;;;;;-0.50;63.83;99997.03;1747057;77;21430;-87
2022/01/26 11:54:24;;;;;;;44.73;15.55;;;;;;;-0.73;64.03;100004.78;1772286;79;21035;-87
2022/01/26 11:57:05;;;;;;;37.35;14.33;;;;;;;-0.76;64.02;100002.11;1810648;76;21101;-86
2022/01/26 12:11:38;;;;;;;34.35;13.83;;;;;;;-0.87;65.02;100005.58;1769556;78;21051;-84
2022/01/26 12:17:29;;;;;;;37.17;15.72;;;;;;;-0.94;65.20;99990.84;1792925;77;21059;-86
2022/01/26 12:34:15;;;;;;;43.98;14.03;;;;;;;-1.19;65.60;99977.63;1794248;77;20987;-83
2022/01/26 12:37:02;;;;;;;38.55;12.95;;;;;;;-1.27;65.81;99975.22;1764923;77;20999;31
2022/01/26 12:41:12;;;;;;;36.98;14.38;;;;;;;-1.24;65.75;99963.41;1683048;83;21066;-82
2022/01/26 12:41:53;;;;;;;32.65;13.00;;;;;;;-1.34;66.22;99951.55;1704279;83;21034;-80
2022/01/26 12:44:15;;;;;;;33.83;13.03;;;;;;;-1.30;66.10;99956.81;1677572;84;20996;-82
2022/01/26 12:46:42;;;;;;;49.83;16.87;;;;;;;-1.29;66.13;99951.33;1676591;83;21020;-82
2022/01/26 12:49:18;;;;;;;35.10;13.50;;;;;;;-1.37;66.22;99949.77;1687372;84;20971;-80
2022/01/26 12:51:50;;;;;;;35.50;14.13;;;;;;;-1.34;66.24;99968.14;1698193;84;20987;-83
2022/01/26 12:54:18;;;;;;;27.70;12.60;;;;;;;-1.35;66.37;99976.59;1656270;83;21053;-85
2022/01/26 12:57:02;;;;;;;37.88;13.62;;;;;;;-1.39;66.62;99965.43;1693118;80;21113;31
2022/01/26 12:59:29;;;;;;;34.83;13.53;;;;;;;-1.38;66.46;99961.19;1750987;78;21055;-83
2022/01/26 13:04:45;;;;;;;42.85;16.00;;;;;;;-1.41;66.66;99950.06;1774986;78;21082;-82
2022/01/26 13:07:18;;;;;;;38.05;14.78;;;;;;;-1.43;66.79;99954.23;1805622;77;21061;31
2022/01/26 13:09:44;;;;;;;36.60;13.65;;;;;;;-1.42;66.78;99958.51;1762996;80;20972;-81
2022/01/26 13:12:30;;;;;;;35.35;14.23;;;;;;;-1.37;66.60;99970.56;1784225;77;21121;31
2022/01/26 13:15:26;;;;;;;39.20;14.18;;;;;;;-1.43;66.92;99963.16;1701196;79;21062;31
2022/01/26 13:27:06;;;;;;;42.98;14.38;;;;;;;-1.34;67.15;99937.53;1751669;77;21174;-84
2022/01/26 13:29:43;;;;;;;31.40;12.43;;;;;;;-1.28;66.85;99926.27;1749278;78;21050;-82
2022/01/26 13:34:53;;;;;;;32.03;13.68;;;;;;;-1.37;67.01;99930.64;1770980;77;21000;-82
2022/01/26 13:37:21;;;;;;;46.95;14.47;;;;;;;-1.37;67.08;99932.30;1798915;76;21097;-79
2022/01/26 13:45:26;;;;;;;42.10;13.13;;;;;;;-1.27;67.09;99953.53;1740098;77;21646;-82
2022/01/26 13:53:31;;;;;;;36.20;13.60;;;;;;;-1.19;66.92;99971.25;1750425;78;21179;31
2022/01/26 13:56:12;;;;;;;40.73;14.38;;;;;;;-1.24;67.06;99963.83;1763943;78;21161;31
2022/01/26 14:01:15;;;;;;;49.70;15.58;;;;;;;-1.19;66.88;99959.77;1756196;81;20950;-82
2022/01/26 14:09:47;;;;;;;42.70;14.38;;;;;;;-1.19;67.19;99971.25;1809395;77;22829;-80
2022/01/26 14:12:16;;;;;;;39.40;13.68;;;;;;;-1.16;67.03;99966.24;1792321;76;21138;-81
2022/01/26 14:14:45;;;;;;;37.70;14.00;;;;;;;-1.11;66.84;99960.91;1813408;77;21264;-85
2022/01/26 14:17:16;;;;;;;40.65;15.60;;;;;;;-1.13;66.95;99963.81;1780004;77;21078;-78
2022/01/26 14:20:06;;;;;;;43.73;15.05;;;;;;;-1.11;66.75;99963.46;1808715;78;21007;-84
2022/01/26 14:36:52;;;;;;;43.23;16.27;;;;;;;-1.21;67.37;99964.81;1781522;78;21072;-81
2022/01/26 15:35:03;;;;;;;45.40;17.05;;;;;;;-1.55;68.69;99989.88;1792427;80;21031;-82
2022/01/26 15:59:17;;;;;;;47.15;17.25;;;;;;;-1.52;69.46;99961.95;1759769;77;21055;-81
2022/01/26 16:07:40;;;;;;;54.13;20.30;;;;;;;-1.67;69.41;99963.13;1738265;77;21025;-83
2022/01/26 16:12:55;;;;;;;40.67;15.58;;;;;;;-1.79;69.85;99986.88;1783441;77;21114;-82
2022/01/26 16:20:51;;;;;;;45.60;14.38;;;;;;;-1.82;69.83;99973.59;1774889;81;21021;-84
2022/01/26 18:15:34;;;;;;;48.00;18.77;;;;;;;-1.83;71.95;99982.06;1756634;78;21043;31
2022/01/26 18:18:03;;;;;;;;;;;;;;;-1.85;72.56;99973.48;1772114;77;21079;31
2022/01/26 18:32:29;;;;;;;54.85;19.67;;;;;;;-1.76;72.64;99971.68;1797948;77;21091;-82
2022/01/26 18:40:36;;;;;;;45.75;18.20;;;;;;;-1.81;72.07;99944.75;1810050;76;21091;-81
2022/01/26 18:51:52;;;;;;;39.63;15.70;;;;;;;-1.98;73.70;99919.44;1755872;77;22690;31
2022/01/26 18:54:27;;;;;;;51.05;17.60;;;;;;;-1.99;73.56;99913.44;1803193;77;21068;-80
2022/01/26 18:56:56;;;;;;;47.27;16.80;;;;;;;-2.04;74.06;99916.23;1753315;77;21350;-83
2022/01/26 18:59:23;;;;;;;49.42;19.75;;;;;;;-2.04;73.91;99913.28;1818548;77;21134;-77
2022/01/26 19:04:53;;;;;;;47.53;19.30;;;;;;;-1.98;73.50;99917.74;1791719;76;21066;31
2022/01/26 19:07:19;;;;;;;46.80;18.45;;;;;;;-2.15;75.09;99918.34;1803413;76;21074;-79
2022/01/26 19:09:50;;;;;;;50.48;18.07;;;;;;;-2.14;75.09;99915.42;1809333;77;21054;-75
2022/01/26 19:12:16;;;;;;;59.73;20.02;;;;;;;-2.11;74.96;99909.16;1795408;77;21162;-81
2022/01/26 19:15:10;;;;;;;43.42;17.87;;;;;;;-2.15;75.50;99904.34;1764576;76;21087;31
2022/01/26 19:17:38;;;;;;;44.08;16.87;;;;;;;-2.09;74.79;99897.34;1800436;77;21056;-82
2022/01/26 19:20:18;;;;;;;41.33;15.38;;;;;;;-2.07;74.32;99908.08;1793603;77;21364;-84
2022/01/26 19:25:10;;;;;;;49.03;17.57;;;;;;;-2.07;74.86;99902.09;1795301;77;21050;-78
2022/01/26 19:27:38;;;;;;;59.48;20.82;;;;;;;-2.04;74.52;99903.08;1775431;77;21127;-81
2022/01/26 19:33:08;;;;;;;48.20;19.32;;;;;;;-2.04;74.68;99895.85;1695499;78;21172;-84
2022/01/26 19:46:31;;;;;;;49.93;18.77;;;;;;;-2.08;75.40;99923.30;1768734;77;21082;-83
2022/01/26 19:57:34;;;;;;;55.25;18.73;;;;;;;-2.08;75.92;99913.11;1774954;77;21216;31
2022/01/26 20:00:01;;;;;;;51.18;20.17;;;;;;;-2.07;75.96;99910.63;1799535;76;21089;-77
2022/01/26 20:02:35;;;;;;;49.40;18.50;;;;;;;-2.05;75.61;99910.66;1809946;76;21086;31
2022/01/26 20:05:13;;;;;;;48.70;18.00;;;;;;;-2.05;75.81;99910.66;1701302;79;21117;31
2022/01/26 20:07:37;;;;;;;60.17;20.52;;;;;;;-2.04;75.46;99914.96;1757555;76;21085;31
2022/01/26 20:13:17;;;;;;;48.37;18.90;;;;;;;-1.99;75.25;99913.44;1760672;78;22449;-76